Fort Garland, Colorado
Current Conditions -  °F | °C
As of 4:11 AM on Monday 22 Dec 2014 (Local Time) from KVTP Reporting Station
Overcast Overcast  
Wind Chill: 20°   Ceiling: 2800
Heat Index: 27°   Visibility: 7mi
Dew Point: 23°   Wind: 6mph
Humidity: 86%   Direction: 230°SW
Pressure: 29.75"   Gusts: NA
Location:  37.43°N, 105.43°W
Report Text: KVTP 221111Z AUTO 23005KT 7SM SCT022 BKN028 OVC045 M03/M05 A2975 RMK AO2
Loading
Personal Weather Stations






























Interactive Weather Map New forecast layout! Learn more

10-Day Weather Forecast

Advertisements
Track Severe Weather on mobile